createdAt,value
2017-11-21T00:00:31.954Z,8.27
2017-11-21T00:03:14.536Z,8.40
2017-11-21T00:05:43.704Z,8.00
2017-11-21T00:08:13.124Z,7.27
2017-11-21T00:10:42.218Z,7.33
2017-11-21T00:13:11.297Z,6.97
2017-11-21T00:15:40.316Z,7.10
2017-11-21T00:18:16.961Z,6.77
2017-11-21T00:20:46.027Z,6.60
2017-11-21T00:23:22.030Z,6.03
2017-11-21T00:25:52.530Z,6.10
2017-11-21T00:28:21.914Z,6.00
2017-11-21T00:30:50.949Z,6.03
2017-11-21T00:33:20.013Z,6.00
2017-11-21T00:35:55.593Z,6.23
2017-11-21T00:38:24.716Z,5.47
2017-11-21T00:40:53.857Z,5.47
2017-11-21T00:43:22.891Z,6.00
2017-11-21T00:45:53.296Z,5.60
2017-11-21T00:48:23.006Z,6.17
2017-11-21T00:50:51.999Z,6.40
2017-11-21T00:53:21.389Z,5.90
2017-11-21T00:55:50.753Z,5.40
2017-11-21T00:58:19.817Z,6.50
2017-11-21T01:00:48.884Z,6.17
2017-11-21T01:03:17.985Z,5.97
2017-11-21T01:06:00.906Z,6.40
2017-11-21T01:08:29.981Z,6.73
2017-11-21T01:10:59.209Z,6.70
2017-11-21T01:13:28.288Z,6.93
2017-11-21T01:15:57.328Z,6.70
2017-11-21T01:18:26.395Z,6.30
2017-11-21T01:20:55.557Z,5.30
2017-11-21T01:23:24.626Z,6.20
2017-11-21T01:25:53.699Z,6.50
2017-11-21T01:28:22.731Z,6.77
2017-11-21T01:30:51.765Z,6.13
2017-11-21T01:33:20.848Z,6.90
2017-11-21T01:36:04.864Z,7.50
2017-11-21T01:38:33.948Z,8.47
2017-11-21T01:41:16.295Z,7.50
2017-11-21T01:43:45.316Z,6.83
2017-11-21T01:46:23.530Z,8.40
2017-11-21T01:48:52.605Z,9.43
2017-11-21T01:51:27.836Z,8.13
2017-11-21T01:53:57.362Z,9.50
2017-11-21T01:56:33.580Z,8.73
2017-11-21T01:59:10.015Z,8.23
2017-11-21T02:01:39.016Z,8.60
2017-11-21T02:04:14.492Z,8.17
2017-11-21T02:06:58.157Z,6.93
2017-11-21T02:09:33.230Z,7.20
2017-11-21T02:12:02.308Z,6.77
2017-11-21T02:14:31.375Z,7.60
2017-11-21T02:17:00.387Z,6.90
2017-11-21T02:19:29.581Z,7.30
2017-11-21T02:21:58.667Z,7.30
2017-11-21T02:24:27.715Z,7.90
2017-11-21T02:26:56.832Z,7.30
2017-11-21T02:29:25.939Z,6.70
2017-11-21T02:31:55.157Z,6.03
2017-11-21T02:34:24.280Z,5.47
2017-11-21T02:36:54.204Z,5.40
2017-11-21T02:39:23.505Z,6.73
2017-11-21T02:41:52.634Z,6.00
2017-11-21T02:44:21.757Z,5.50
2017-11-21T02:46:54.416Z,5.83
2017-11-21T02:49:23.540Z,6.73
2017-11-21T02:51:52.644Z,5.83
2017-11-21T02:54:21.740Z,6.37
2017-11-21T02:56:56.960Z,4.87
2017-11-21T02:59:26.079Z,4.07
2017-11-21T03:01:55.152Z,4.10
2017-11-21T03:04:24.206Z,3.70
2017-11-21T03:06:53.276Z,3.80
2017-11-21T03:09:22.428Z,3.90
2017-11-21T03:12:04.962Z,3.50
2017-11-21T03:14:34.053Z,3.90
2017-11-21T03:17:03.120Z,3.70
2017-11-21T03:19:33.458Z,3.40
2017-11-21T03:22:08.419Z,2.90
2017-11-21T03:24:43.330Z,2.63
2017-11-21T03:27:25.503Z,2.83
2017-11-21T03:29:54.582Z,2.80
2017-11-21T03:32:23.631Z,2.53
2017-11-21T03:34:59.496Z,2.37
2017-11-21T03:37:28.620Z,2.60
2017-11-21T03:39:57.649Z,2.90
2017-11-21T03:42:26.979Z,3.40
2017-11-21T03:44:56.573Z,2.53
2017-11-21T03:47:25.649Z,3.83
2017-11-21T03:49:54.732Z,3.70
2017-11-21T03:52:23.768Z,4.10
2017-11-21T03:54:52.850Z,3.83
2017-11-21T03:57:21.889Z,3.93
2017-11-21T03:59:50.923Z,4.30
2017-11-21T04:02:19.974Z,4.83
2017-11-21T04:04:49.075Z,4.73
2017-11-21T04:07:18.141Z,4.33
2017-11-21T04:09:47.191Z,4.30
2017-11-21T04:12:16.750Z,4.17
2017-11-21T04:14:46.070Z,4.43
2017-11-21T04:17:15.548Z,6.13
2017-11-21T04:19:44.582Z,6.10
2017-11-21T04:22:13.659Z,4.90
2017-11-21T04:24:42.961Z,5.40
2017-11-21T04:27:12.165Z,4.90
2017-11-21T04:29:41.243Z,5.57
2017-11-21T04:32:10.279Z,5.80
2017-11-21T04:34:39.535Z,5.27
2017-11-21T04:37:09.787Z,5.17
2017-11-21T04:39:38.877Z,5.33
2017-11-21T04:42:11.584Z,4.93
2017-11-21T04:44:40.692Z,5.30
2017-11-21T04:47:09.996Z,5.57
2017-11-21T04:49:39.100Z,8.87
2017-11-21T04:52:15.248Z,6.83
2017-11-21T04:54:56.853Z,7.43
2017-11-21T04:57:26.100Z,6.30
2017-11-21T04:59:55.184Z,5.00
2017-11-21T05:02:24.222Z,5.77
2017-11-21T05:05:00.556Z,7.97
2017-11-21T05:07:29.613Z,6.60
2017-11-21T05:09:58.691Z,6.00
2017-11-21T05:12:27.725Z,6.17
2017-11-21T05:14:56.925Z,6.70
2017-11-21T05:17:26.205Z,7.63
2017-11-21T05:19:55.235Z,6.80
2017-11-21T05:22:24.276Z,7.20
2017-11-21T05:24:53.472Z,5.57
2017-11-21T05:27:22.732Z,7.90
2017-11-21T05:29:51.783Z,7.20
2017-11-21T05:32:26.961Z,8.60
2017-11-21T05:34:56.215Z,8.13
2017-11-21T05:37:25.517Z,7.63
2017-11-21T05:39:54.581Z,5.90
2017-11-21T05:42:23.621Z,5.13
2017-11-21T05:44:52.704Z,6.00
2017-11-21T05:47:30.894Z,6.60
2017-11-21T05:50:00.006Z,4.73
2017-11-21T05:52:29.102Z,6.80
2017-11-21T05:54:58.156Z,5.07
2017-11-21T05:57:27.167Z,5.40
2017-11-21T06:00:09.181Z,5.83
2017-11-21T06:02:38.268Z,9.83
2017-11-21T06:05:07.347Z,8.90
2017-11-21T06:07:36.384Z,6.57
2017-11-21T06:10:05.441Z,7.13
2017-11-21T06:12:34.467Z,6.70
2017-11-21T06:15:03.559Z,6.83
2017-11-21T06:17:33.213Z,4.83
2017-11-21T06:20:02.284Z,6.30
2017-11-21T06:22:31.478Z,6.70
2017-11-21T06:25:00.558Z,6.07
2017-11-21T06:27:29.599Z,6.07
2017-11-21T06:29:59.516Z,8.97
2017-11-21T06:32:28.571Z,8.43
2017-11-21T06:34:57.602Z,7.23
2017-11-21T06:37:26.640Z,7.13
2017-11-21T06:39:56.026Z,6.50
2017-11-21T06:42:25.048Z,7.93
2017-11-21T06:44:54.064Z,6.67
2017-11-21T06:47:23.132Z,10.03
2017-11-21T06:49:52.193Z,7.00
2017-11-21T06:52:28.803Z,9.40
2017-11-21T06:54:58.245Z,8.77
2017-11-21T06:57:27.292Z,6.50
2017-11-21T07:00:02.801Z,5.57
2017-11-21T07:02:31.897Z,5.80
2017-11-21T07:05:00.970Z,7.93
2017-11-21T07:07:37.964Z,6.10
2017-11-21T07:10:19.534Z,6.50
2017-11-21T07:12:48.750Z,12.03
2017-11-21T07:15:17.872Z,9.80
2017-11-21T07:17:46.967Z,6.60
2017-11-21T07:20:16.016Z,10.60
2017-11-21T07:22:45.073Z,10.83
2017-11-21T07:25:14.115Z,10.20
2017-11-21T07:27:43.207Z,8.37
2017-11-21T07:30:13.853Z,8.80
2017-11-21T07:32:43.215Z,10.00
2017-11-21T07:35:12.268Z,8.23
2017-11-21T07:37:41.337Z,11.10
2017-11-21T07:40:10.579Z,9.67
2017-11-21T07:42:43.429Z,10.03
2017-11-21T07:45:12.502Z,11.53
2017-11-21T07:47:41.574Z,10.43
2017-11-21T07:50:29.910Z,12.83
2017-11-21T07:52:59.263Z,11.37
2017-11-21T07:55:28.308Z,14.40
2017-11-21T07:57:57.320Z,11.57
2017-11-21T08:00:26.324Z,12.07
2017-11-21T08:02:55.380Z,9.23
2017-11-21T08:05:24.412Z,11.53
2017-11-21T08:07:53.608Z,14.27
2017-11-21T08:10:22.683Z,11.40
2017-11-21T08:12:59.314Z,16.17
2017-11-21T08:15:28.405Z,22.03
2017-11-21T08:17:57.480Z,11.87
2017-11-21T08:20:26.533Z,18.80
2017-11-21T08:22:55.569Z,10.27
2017-11-21T08:25:31.609Z,17.10
2017-11-21T08:28:00.956Z,14.73
2017-11-21T08:30:29.995Z,11.60
2017-11-21T08:32:59.084Z,9.13
2017-11-21T08:35:28.147Z,14.57
2017-11-21T08:37:57.194Z,14.60
2017-11-21T08:40:27.090Z,11.70
2017-11-21T08:43:03.381Z,11.27
2017-11-21T08:45:33.411Z,12.90
2017-11-21T08:48:02.729Z,12.10
2017-11-21T08:50:31.789Z,15.57
2017-11-21T08:53:01.414Z,13.87
2017-11-21T08:55:30.510Z,12.30
2017-11-21T08:57:59.560Z,11.57
2017-11-21T09:00:28.591Z,8.30
2017-11-21T09:02:57.644Z,7.43
2017-11-21T09:05:26.719Z,8.10
2017-11-21T09:07:55.777Z,8.33
2017-11-21T09:10:24.801Z,7.37
2017-11-21T09:13:00.549Z,7.00
2017-11-21T09:15:35.927Z,7.80
2017-11-21T09:18:08.487Z,7.67
2017-11-21T09:20:37.536Z,7.10
2017-11-21T09:23:06.620Z,6.30
2017-11-21T09:25:43.578Z,8.00
2017-11-21T09:28:12.868Z,7.83
2017-11-21T09:30:41.926Z,8.00
2017-11-21T09:33:11.005Z,7.40
2017-11-21T09:35:40.067Z,7.70
2017-11-21T09:38:09.153Z,8.40
2017-11-21T09:40:38.235Z,7.70
2017-11-21T09:43:07.266Z,7.50
2017-11-21T09:45:36.604Z,7.40
2017-11-21T09:48:05.669Z,9.13
2017-11-21T09:50:35.009Z,7.70
2017-11-21T09:53:11.632Z,7.83
2017-11-21T09:55:41.235Z,7.87
2017-11-21T09:58:10.276Z,8.90
2017-11-21T10:00:39.674Z,8.90
2017-11-21T10:03:09.036Z,10.27
2017-11-21T10:05:38.075Z,10.00
2017-11-21T10:08:07.151Z,9.63
2017-11-21T10:10:36.220Z,9.50
2017-11-21T10:13:05.303Z,10.50
2017-11-21T10:15:34.418Z,9.33
2017-11-21T10:18:18.070Z,10.23
2017-11-21T10:20:47.121Z,8.47
2017-11-21T10:23:16.158Z,9.40
2017-11-21T10:25:45.175Z,9.30
2017-11-21T10:28:14.493Z,9.67
2017-11-21T10:30:50.593Z,9.60
2017-11-21T10:33:19.678Z,9.53
2017-11-21T10:35:48.700Z,9.30
2017-11-21T10:38:17.776Z,8.13
2017-11-21T10:40:51.138Z,9.83
2017-11-21T10:43:26.149Z,8.00
2017-11-21T10:45:59.510Z,9.13
2017-11-21T10:48:28.619Z,8.60
2017-11-21T10:50:57.693Z,9.37
2017-11-21T10:53:27.004Z,9.17
2017-11-21T10:55:56.143Z,9.90
2017-11-21T10:58:25.158Z,10.57
2017-11-21T11:00:54.512Z,10.60
2017-11-21T11:03:36.516Z,11.27
2017-11-21T11:06:17.736Z,10.07
2017-11-21T11:08:46.812Z,9.47
2017-11-21T11:11:15.950Z,9.50
2017-11-21T11:13:45.100Z,8.40
2017-11-21T11:16:14.235Z,9.93
2017-11-21T11:18:43.344Z,9.00
2017-11-21T11:21:12.473Z,9.47
2017-11-21T11:23:41.805Z,9.00
2017-11-21T11:26:12.292Z,10.20
2017-11-21T11:28:41.981Z,10.93
2017-11-21T11:31:11.100Z,8.57
2017-11-21T11:33:40.197Z,8.97
2017-11-21T11:36:09.318Z,9.90
2017-11-21T11:38:38.612Z,8.40
2017-11-21T11:41:07.912Z,9.63
2017-11-21T11:43:37.232Z,10.10
2017-11-21T11:46:08.114Z,9.23
2017-11-21T11:48:37.183Z,9.37
2017-11-21T11:51:16.269Z,8.87
2017-11-21T11:53:58.858Z,7.10
2017-11-21T11:56:27.966Z,9.17
2017-11-21T11:58:57.101Z,10.73
2017-11-21T12:01:26.444Z,10.50
2017-11-21T12:03:55.632Z,6.20
2017-11-21T12:06:37.901Z,5.97
2017-11-21T12:09:06.993Z,4.10
2017-11-21T12:11:36.072Z,5.17
2017-11-21T12:14:05.166Z,3.83
2017-11-21T12:16:34.289Z,4.07
2017-11-21T12:19:03.359Z,4.33
2017-11-21T12:21:32.481Z,4.90
2017-11-21T12:24:01.598Z,4.17
2017-11-21T12:26:33.683Z,4.73
2017-11-21T12:29:02.992Z,5.33
2017-11-21T12:31:32.516Z,4.60
2017-11-21T12:34:01.620Z,4.30
2017-11-21T12:36:30.744Z,4.77
2017-11-21T12:39:05.990Z,5.30
2017-11-21T12:41:35.077Z,4.63
2017-11-21T12:44:05.073Z,4.43
2017-11-21T12:46:34.160Z,4.80
2017-11-21T12:49:03.335Z,4.83
2017-11-21T12:51:39.205Z,6.50
2017-11-21T12:54:08.284Z,7.03
2017-11-21T12:56:37.367Z,6.83
2017-11-21T12:59:06.470Z,8.33
2017-11-21T13:01:35.598Z,8.03
2017-11-21T13:04:04.719Z,7.63
2017-11-21T13:06:34.178Z,8.80
2017-11-21T13:09:05.099Z,7.50
2017-11-21T13:11:34.913Z,7.97
2017-11-21T13:14:03.987Z,7.50
2017-11-21T13:16:33.309Z,9.40
2017-11-21T13:19:02.358Z,8.77
2017-11-21T13:21:39.710Z,8.17
2017-11-21T13:24:20.846Z,8.43
2017-11-21T13:26:49.984Z,9.07
2017-11-21T13:29:25.113Z,9.10
2017-11-21T13:31:54.188Z,8.50
2017-11-21T13:34:23.701Z,9.57
2017-11-21T13:36:52.779Z,9.50
2017-11-21T13:39:23.349Z,9.63
2017-11-21T13:41:52.661Z,10.50
2017-11-21T13:44:21.771Z,9.97
2017-11-21T13:46:51.092Z,10.17
2017-11-21T13:49:20.675Z,10.77
2017-11-21T13:51:50.134Z,10.10
2017-11-21T13:54:19.249Z,10.37
2017-11-21T13:56:48.344Z,8.73
2017-11-21T13:59:17.404Z,10.27
2017-11-21T14:01:46.472Z,9.70
2017-11-21T14:04:15.719Z,8.73
2017-11-21T14:06:44.871Z,9.00
2017-11-21T14:09:14.001Z,10.70
2017-11-21T14:11:43.098Z,8.93
2017-11-21T14:14:12.702Z,10.10
2017-11-21T14:16:42.027Z,8.67
2017-11-21T14:19:11.708Z,9.30
2017-11-21T14:21:46.702Z,9.60
2017-11-21T14:24:15.816Z,9.80
2017-11-21T14:26:45.103Z,8.20
2017-11-21T14:29:14.192Z,8.17
2017-11-21T14:31:43.335Z,7.90
2017-11-21T14:34:12.449Z,9.03
2017-11-21T14:36:48.340Z,9.37
2017-11-21T14:39:17.436Z,8.67
2017-11-21T14:41:46.531Z,7.77
2017-11-21T14:44:15.640Z,8.57
2017-11-21T14:46:44.951Z,8.87
2017-11-21T14:49:15.997Z,9.30
2017-11-21T14:51:45.248Z,9.00
2017-11-21T14:54:14.362Z,8.43
2017-11-21T14:56:43.814Z,8.33
2017-11-21T14:59:14.682Z,8.00
2017-11-21T15:01:44.281Z,7.63
2017-11-21T15:04:13.926Z,7.13
2017-11-21T15:06:49.014Z,7.07
2017-11-21T15:09:21.869Z,6.47
2017-11-21T15:12:06.263Z,7.00
2017-11-21T15:14:35.857Z,6.47
2017-11-21T15:17:13.365Z,6.00
2017-11-21T15:19:43.377Z,6.40
2017-11-21T15:22:12.852Z,6.30
2017-11-21T15:24:43.109Z,5.93
2017-11-21T15:27:13.924Z,6.73
2017-11-21T15:29:49.352Z,7.10
2017-11-21T15:32:19.238Z,4.93
2017-11-21T15:34:48.834Z,6.60
2017-11-21T15:37:18.365Z,6.03
2017-11-21T15:39:47.721Z,5.67
2017-11-21T15:42:17.056Z,6.20
2017-11-21T15:44:49.788Z,6.00
2017-11-21T15:49:53.785Z,12.17
2017-11-21T15:52:22.856Z,10.57
2017-11-21T15:57:26.165Z,18.00
2017-11-21T15:59:56.176Z,12.10
2017-11-21T16:02:27.026Z,11.90
2017-11-21T16:04:56.101Z,7.30
2017-11-21T16:07:25.789Z,8.90
2017-11-21T16:09:58.333Z,7.60
2017-11-21T16:12:42.494Z,8.93
2017-11-21T16:15:12.419Z,10.50
2017-11-21T16:17:42.965Z,6.97
2017-11-21T16:20:12.362Z,6.73
2017-11-21T16:22:41.962Z,8.07
2017-11-21T16:25:12.240Z,10.73
2017-11-21T16:27:42.063Z,10.13
2017-11-21T16:30:11.347Z,9.70
2017-11-21T16:32:40.409Z,9.10
2017-11-21T16:35:16.687Z,8.40
2017-11-21T16:38:00.554Z,8.37
2017-11-21T16:40:30.330Z,8.93
2017-11-21T16:42:59.700Z,9.73
2017-11-21T16:45:29.313Z,7.43
2017-11-21T16:47:59.228Z,8.47
2017-11-21T16:53:02.920Z,6.43
2017-11-21T16:55:40.913Z,7.53
2017-11-21T16:58:10.723Z,5.90
2017-11-21T17:00:48.159Z,6.97
2017-11-21T17:03:22.306Z,9.70
2017-11-21T17:05:56.236Z,11.30
2017-11-21T17:11:09.170Z,9.43
2017-11-21T17:16:29.243Z,8.80
2017-11-21T17:18:59.897Z,10.20
2017-11-21T17:21:29.964Z,9.40
2017-11-21T17:31:56.489Z,8.87
2017-11-21T17:34:27.040Z,8.97
2017-11-21T17:36:56.905Z,9.70
2017-11-21T17:39:35.568Z,9.40
2017-11-21T17:42:25.036Z,9.53
2017-11-21T17:48:02.285Z,9.77
2017-11-21T17:50:31.747Z,9.10
2017-11-21T17:53:01.980Z,9.40
2017-11-21T17:55:33.808Z,8.60
2017-11-21T17:58:10.837Z,9.50
2017-11-21T18:00:44.136Z,11.10
2017-11-21T18:03:28.422Z,10.13
2017-11-21T18:06:10.589Z,9.40
2017-11-21T18:08:39.685Z,9.73
2017-11-21T18:11:08.809Z,9.23
2017-11-21T18:13:37.919Z,10.00
2017-11-21T18:16:06.972Z,8.90
2017-11-21T18:18:36.608Z,9.50
2017-11-21T18:21:11.411Z,9.90
2017-11-21T18:23:40.864Z,9.90
2017-11-21T18:26:17.869Z,10.23
2017-11-21T18:28:47.164Z,9.50
2017-11-21T18:31:16.660Z,10.60
2017-11-21T18:33:48.092Z,9.00
2017-11-21T18:36:20.877Z,9.77
2017-11-21T18:38:50.011Z,11.30
2017-11-21T18:41:20.948Z,10.50
2017-11-21T18:43:50.342Z,9.90
2017-11-21T18:46:19.965Z,12.37
2017-11-21T18:48:58.605Z,10.47
2017-11-21T18:51:27.888Z,10.80
2017-11-21T18:54:03.180Z,8.77
2017-11-21T18:56:32.219Z,8.90
2017-11-21T18:59:01.289Z,9.67
2017-11-21T19:01:30.404Z,9.80
2017-11-21T19:03:59.756Z,9.97
2017-11-21T19:06:28.881Z,9.60
2017-11-21T19:09:00.382Z,9.40
2017-11-21T19:11:29.468Z,10.87
2017-11-21T19:13:59.208Z,9.20
2017-11-21T19:16:38.715Z,9.43
2017-11-21T19:19:10.433Z,9.20
2017-11-21T19:21:39.736Z,9.30
2017-11-21T19:24:16.819Z,10.67
2017-11-21T19:26:46.350Z,8.00
2017-11-21T19:29:15.747Z,9.97
2017-11-21T19:31:45.033Z,9.57
2017-11-21T19:34:17.227Z,9.50
2017-11-21T19:36:47.387Z,10.70
2017-11-21T19:39:17.527Z,10.47
2017-11-21T19:41:47.864Z,11.33
2017-11-21T19:44:17.165Z,10.20
2017-11-21T19:46:46.940Z,11.47
2017-11-21T19:49:16.365Z,11.10
2017-11-21T19:51:56.027Z,12.20
2017-11-21T19:54:30.805Z,10.43
2017-11-21T19:57:07.149Z,9.60
2017-11-21T19:59:50.020Z,8.73
2017-11-21T20:02:20.321Z,10.47
2017-11-21T20:04:50.412Z,8.80
2017-11-21T20:07:27.047Z,8.50
2017-11-21T20:10:02.215Z,9.70
2017-11-21T20:12:38.687Z,10.33
2017-11-21T20:15:08.716Z,8.93
2017-11-21T20:17:40.029Z,9.20
2017-11-21T20:20:11.102Z,9.27
2017-11-21T20:22:55.778Z,8.70
2017-11-21T20:25:25.860Z,8.93
2017-11-21T20:27:55.140Z,7.80
2017-11-21T20:30:32.232Z,9.60
2017-11-21T20:33:07.310Z,8.53
2017-11-21T20:35:45.185Z,7.87
2017-11-21T20:38:16.215Z,9.57
2017-11-21T20:40:45.361Z,10.23
2017-11-21T20:43:14.468Z,8.53
2017-11-21T20:53:47.184Z,8.57
2017-11-21T20:56:24.465Z,10.63
2017-11-21T20:58:54.973Z,10.93
2017-11-21T21:01:24.930Z,9.60
2017-11-21T21:03:54.520Z,10.60
2017-11-21T21:06:23.713Z,11.90
2017-11-21T21:08:53.826Z,11.70
2017-11-21T21:11:35.916Z,12.33
2017-11-21T21:16:59.023Z,12.47
2017-11-21T21:19:28.122Z,13.17
2017-11-21T21:21:57.521Z,13.20
2017-11-21T21:24:26.837Z,13.30
2017-11-21T21:26:56.317Z,12.63
2017-11-21T21:29:25.509Z,13.50
2017-11-21T21:34:38.547Z,12.70
2017-11-21T21:37:08.324Z,14.40
2017-11-21T21:39:41.261Z,12.30
2017-11-21T21:44:45.058Z,12.97
2017-11-21T21:47:14.330Z,13.13
2017-11-21T21:49:45.278Z,13.70
2017-11-21T21:52:18.137Z,12.60
2017-11-21T21:54:48.105Z,14.17
2017-11-21T21:57:18.653Z,14.77
2017-11-21T21:59:49.213Z,14.40
2017-11-21T22:02:18.820Z,14.40
2017-11-21T22:04:48.569Z,12.70
2017-11-21T22:10:20.043Z,13.77
2017-11-21T22:12:51.073Z,14.47
2017-11-21T22:15:21.078Z,14.10
2017-11-21T22:20:30.005Z,14.27
2017-11-21T22:22:59.225Z,13.73
2017-11-21T22:25:28.256Z,13.80
2017-11-21T22:27:57.522Z,14.00
2017-11-21T22:30:27.680Z,13.77
2017-11-21T22:32:56.725Z,13.60
2017-11-21T22:35:26.046Z,12.90
2017-11-21T22:37:58.233Z,14.40
2017-11-21T22:40:27.811Z,13.00
2017-11-21T22:43:11.333Z,12.67
2017-11-21T22:45:40.390Z,14.63
2017-11-21T22:48:09.456Z,13.40
2017-11-21T22:50:38.943Z,12.70
2017-11-21T22:53:15.037Z,13.67
2017-11-21T22:55:45.246Z,13.20
2017-11-21T22:58:14.499Z,13.20
2017-11-21T23:00:43.676Z,12.33
2017-11-21T23:03:31.644Z,12.53
2017-11-21T23:06:00.728Z,12.30
2017-11-21T23:08:42.551Z,11.13
2017-11-21T23:11:11.704Z,11.60
2017-11-21T23:13:40.793Z,11.03
2017-11-21T23:16:14.287Z,10.23
2017-11-21T23:18:43.453Z,11.33
2017-11-21T23:21:13.304Z,11.83
2017-11-21T23:23:44.997Z,10.80
2017-11-21T23:26:17.183Z,11.60
2017-11-21T23:28:47.053Z,11.83
2017-11-21T23:31:24.874Z,10.07
2017-11-21T23:33:54.034Z,10.63
2017-11-21T23:39:02.013Z,10.37
2017-11-21T23:41:31.035Z,10.93
2017-11-21T23:44:01.145Z,10.83
2017-11-21T23:49:26.416Z,10.57
2017-11-21T23:51:59.336Z,10.87
2017-11-21T23:54:29.241Z,12.60
2017-11-21T23:56:59.396Z,10.40
2017-11-21T23:59:29.680Z,10.07
